RKTU/CHN METAR and TAF weather

Enter ICAO airport designator
Station Type Date Time Source
RKTU METAR 2020/09/26 11:00 UTC NOAA

RKTU 261100Z 06006KT CAVOK 16/13 Q1016


Station Type Date Time Source
RKTU Decoded METAR 2020/09/26 11:00 UTC NOAA

Chongju Ab, Korea, South (RKTU) 36-42N 127-30E 66M
Sep 26, 2020 - 07:00 AM EDT / 2020.09.26 1100 UTC
Wind: from the ENE (060 degrees) at 7 MPH (6 KT):0
Visibility: greater than 7 mile(s):0
Temperature: 60 F (16 C)
Dew Point: 55 F (13 C)
Relative Humidity: 82%
Pressure (altimeter): 30.00 in. Hg (1016 hPa)
ob: RKTU 261100Z 06006KT CAVOK 16/13 Q1016
cycle: 11

Station Type Date Time Source
RKTU TAF 2020/09/26 12:09 UTC NOAA

TAF RKTU 261100Z 2612/2718 06006KT 9999 SCT030 TN11/2621Z TX25/2706Z

Example: see airport list